sensor_id;sensor_type;location;lat;lon;timestamp;pressure;altitude;pressure_sealevel;temperature;humidity
21555;BME280;10938;44.794;-0.676;2022-08-19T00:02:23;101524.31;;;30.78;32.75
21555;BME280;10938;44.794;-0.676;2022-08-19T00:04:51;101522.13;;;30.84;32.94
21555;BME280;10938;44.794;-0.676;2022-08-19T00:07:19;101523.59;;;31.49;31.86
21555;BME280;10938;44.794;-0.676;2022-08-19T00:09:45;101524.41;;;31.94;31.26
21555;BME280;10938;44.794;-0.676;2022-08-19T00:12:11;101513.84;;;29.26;36.05
21555;BME280;10938;44.794;-0.676;2022-08-19T00:14:37;101517.94;;;28.07;37.90
21555;BME280;10938;44.794;-0.676;2022-08-19T00:17:23;101518.53;;;28.13;38.14
21555;BME280;10938;44.794;-0.676;2022-08-19T00:19:50;101508.44;;;28.37;37.65
21555;BME280;10938;44.794;-0.676;2022-08-19T00:22:15;101521.94;;;28.17;37.91
21555;BME280;10938;44.794;-0.676;2022-08-19T00:24:47;101516.13;;;28.26;37.64
21555;BME280;10938;44.794;-0.676;2022-08-19T00:27:13;101519.84;;;28.24;37.73
21555;BME280;10938;44.794;-0.676;2022-08-19T00:29:46;101517.66;;;28.50;37.35
21555;BME280;10938;44.794;-0.676;2022-08-19T00:32:13;101518.34;;;29.76;35.09
21555;BME280;10938;44.794;-0.676;2022-08-19T00:34:39;101512.09;;;30.56;33.68
21555;BME280;10938;44.794;-0.676;2022-08-19T00:37:04;101507.03;;;29.02;36.08
21555;BME280;10938;44.794;-0.676;2022-08-19T00:39:30;101514.66;;;28.92;36.05
21555;BME280;10938;44.794;-0.676;2022-08-19T00:41:55;101512.91;;;27.81;38.51
21555;BME280;10938;44.794;-0.676;2022-08-19T00:44:25;101509.00;;;29.83;35.13
21555;BME280;10938;44.794;-0.676;2022-08-19T00:46:53;101513.28;;;27.92;38.53
21555;BME280;10938;44.794;-0.676;2022-08-19T00:49:35;101513.97;;;27.77;38.72
21555;BME280;10938;44.794;-0.676;2022-08-19T00:52:11;101513.63;;;27.45;39.40
21555;BME280;10938;44.794;-0.676;2022-08-19T00:54:47;101513.41;;;28.63;36.08
21555;BME280;10938;44.794;-0.676;2022-08-19T00:57:17;101523.38;;;31.68;31.53
21555;BME280;10938;44.794;-0.676;2022-08-19T00:59:52;101518.03;;;32.37;30.18
21555;BME280;10938;44.794;-0.676;2022-08-19T01:02:19;101519.63;;;28.83;35.73
21555;BME280;10938;44.794;-0.676;2022-08-19T01:04:46;101525.13;;;27.68;38.32
21555;BME280;10938;44.794;-0.676;2022-08-19T01:07:12;101515.44;;;27.03;39.76
21555;BME280;10938;44.794;-0.676;2022-08-19T01:09:43;101514.47;;;26.84;40.33
21555;BME280;10938;44.794;-0.676;2022-08-19T01:12:14;101523.56;;;27.42;38.91
21555;BME280;10938;44.794;-0.676;2022-08-19T01:14:40;101512.88;;;27.00;40.00
21555;BME280;10938;44.794;-0.676;2022-08-19T01:17:08;101513.53;;;27.67;38.85
21555;BME280;10938;44.794;-0.676;2022-08-19T01:19:50;101510.88;;;26.85;41.35
21555;BME280;10938;44.794;-0.676;2022-08-19T01:22:32;101509.19;;;27.44;39.24
21555;BME280;10938;44.794;-0.676;2022-08-19T01:25:01;101514.47;;;26.84;39.90
21555;BME280;10938;44.794;-0.676;2022-08-19T01:27:37;101509.03;;;27.68;38.87
21555;BME280;10938;44.794;-0.676;2022-08-19T01:30:03;101507.97;;;27.90;37.91
21555;BME280;10938;44.794;-0.676;2022-08-19T01:32:31;101505.34;;;28.28;36.76
21555;BME280;10938;44.794;-0.676;2022-08-19T01:34:59;101498.38;;;28.05;37.38
21555;BME280;10938;44.794;-0.676;2022-08-19T01:37:28;101497.88;;;27.77;37.93
21555;BME280;10938;44.794;-0.676;2022-08-19T01:39:54;101495.78;;;27.83;37.57
21555;BME280;10938;44.794;-0.676;2022-08-19T01:42:46;101507.06;;;28.47;36.18
21555;BME280;10938;44.794;-0.676;2022-08-19T01:45:12;101504.22;;;27.35;38.31
21555;BME280;10938;44.794;-0.676;2022-08-19T01:47:42;101494.59;;;28.09;37.14
21555;BME280;10938;44.794;-0.676;2022-08-19T01:50:09;101495.31;;;28.86;35.82
21555;BME280;10938;44.794;-0.676;2022-08-19T01:52:37;101499.97;;;28.82;35.70
21555;BME280;10938;44.794;-0.676;2022-08-19T01:55:06;101501.47;;;29.56;34.45
21555;BME280;10938;44.794;-0.676;2022-08-19T01:57:32;101499.97;;;28.28;36.50
21555;BME280;10938;44.794;-0.676;2022-08-19T02:00:01;101505.31;;;27.09;38.92
21555;BME280;10938;44.794;-0.676;2022-08-19T02:02:32;101498.31;;;27.27;39.22
21555;BME280;10938;44.794;-0.676;2022-08-19T02:04:58;101507.13;;;27.29;39.22
21555;BME280;10938;44.794;-0.676;2022-08-19T02:07:23;101508.03;;;26.44;40.38
21555;BME280;10938;44.794;-0.676;2022-08-19T02:09:55;101499.09;;;27.09;39.18
21555;BME280;10938;44.794;-0.676;2022-08-19T02:12:35;101500.31;;;27.62;38.20
21555;BME280;10938;44.794;-0.676;2022-08-19T02:15:04;101501.75;;;27.51;38.33
21555;BME280;10938;44.794;-0.676;2022-08-19T02:17:32;101510.81;;;27.06;39.06
21555;BME280;10938;44.794;-0.676;2022-08-19T02:20:10;101500.44;;;28.19;37.00
21555;BME280;10938;44.794;-0.676;2022-08-19T02:22:39;101493.00;;;26.85;39.56
21555;BME280;10938;44.794;-0.676;2022-08-19T02:25:13;101496.66;;;26.83;39.72
21555;BME280;10938;44.794;-0.676;2022-08-19T02:27:42;101491.88;;;27.31;38.60
21555;BME280;10938;44.794;-0.676;2022-08-19T02:30:17;101500.75;;;27.72;38.80
21555;BME280;10938;44.794;-0.676;2022-08-19T02:33:18;101499.16;;;28.44;37.41
21555;BME280;10938;44.794;-0.676;2022-08-19T02:36:14;101490.66;;;29.06;34.63
21555;BME280;10938;44.794;-0.676;2022-08-19T02:38:55;101494.72;;;28.62;35.75
21555;BME280;10938;44.794;-0.676;2022-08-19T02:41:38;101498.38;;;29.31;35.20
21555;BME280;10938;44.794;-0.676;2022-08-19T02:44:05;101498.66;;;29.42;34.27
21555;BME280;10938;44.794;-0.676;2022-08-19T02:46:32;101504.59;;;29.82;33.68
21555;BME280;10938;44.794;-0.676;2022-08-19T02:49:02;101502.41;;;29.73;33.43
21555;BME280;10938;44.794;-0.676;2022-08-19T02:51:41;101507.69;;;27.78;37.36
21555;BME280;10938;44.794;-0.676;2022-08-19T02:54:08;101506.47;;;27.04;38.91
21555;BME280;10938;44.794;-0.676;2022-08-19T02:56:44;101503.59;;;26.43;39.66
21555;BME280;10938;44.794;-0.676;2022-08-19T02:59:11;101511.13;;;26.34;40.14
21555;BME280;10938;44.794;-0.676;2022-08-19T03:01:37;101507.34;;;26.39;40.18
21555;BME280;10938;44.794;-0.676;2022-08-19T03:04:05;101513.63;;;26.38;40.59
21555;BME280;10938;44.794;-0.676;2022-08-19T03:06:33;101509.50;;;26.06;41.16
21555;BME280;10938;44.794;-0.676;2022-08-19T03:09:13;101514.47;;;26.39;41.20
21555;BME280;10938;44.794;-0.676;2022-08-19T03:11:42;101518.03;;;26.39;40.27
21555;BME280;10938;44.794;-0.676;2022-08-19T03:14:24;101518.06;;;27.25;38.85
21555;BME280;10938;44.794;-0.676;2022-08-19T03:16:52;101524.25;;;27.67;37.90
21555;BME280;10938;44.794;-0.676;2022-08-19T03:19:18;101525.38;;;27.21;38.86
21555;BME280;10938;44.794;-0.676;2022-08-19T03:21:45;101524.69;;;27.36;39.00
21555;BME280;10938;44.794;-0.676;2022-08-19T03:24:12;101523.09;;;27.12;39.45
21555;BME280;10938;44.794;-0.676;2022-08-19T03:26:52;101529.56;;;27.87;38.31
21555;BME280;10938;44.794;-0.676;2022-08-19T03:29:20;101522.78;;;26.98;38.68
21555;BME280;10938;44.794;-0.676;2022-08-19T03:31:46;101521.03;;;27.19;38.73
21555;BME280;10938;44.794;-0.676;2022-08-19T03:34:30;101522.56;;;29.12;35.81
21555;BME280;10938;44.794;-0.676;2022-08-19T03:37:11;101530.69;;;29.80;33.80
21555;BME280;10938;44.794;-0.676;2022-08-19T03:39:42;101524.16;;;27.28;38.53
21555;BME280;10938;44.794;-0.676;2022-08-19T03:42:08;101519.16;;;26.77;40.41
21555;BME280;10938;44.794;-0.676;2022-08-19T03:44:34;101522.28;;;26.67;40.08
21555;BME280;10938;44.794;-0.676;2022-08-19T03:47:06;101520.09;;;27.60;37.49
21555;BME280;10938;44.794;-0.676;2022-08-19T03:49:44;101517.03;;;29.84;33.86
21555;BME280;10938;44.794;-0.676;2022-08-19T03:52:15;101512.22;;;28.88;35.37
21555;BME280;10938;44.794;-0.676;2022-08-19T03:54:40;101516.84;;;29.37;34.66
21555;BME280;10938;44.794;-0.676;2022-08-19T03:57:22;101509.28;;;28.56;36.94
21555;BME280;10938;44.794;-0.676;2022-08-19T03:59:48;101517.34;;;29.78;34.19
21555;BME280;10938;44.794;-0.676;2022-08-19T04:02:13;101513.91;;;28.17;36.55
21555;BME280;10938;44.794;-0.676;2022-08-19T04:04:43;101515.44;;;27.43;37.43
21555;BME280;10938;44.794;-0.676;2022-08-19T04:07:13;101512.88;;;28.20;36.94
21555;BME280;10938;44.794;-0.676;2022-08-19T04:09:46;101512.22;;;26.95;38.83
21555;BME280;10938;44.794;-0.676;2022-08-19T04:12:12;101508.44;;;26.99;39.75
21555;BME280;10938;44.794;-0.676;2022-08-19T04:14:40;101510.22;;;27.00;39.45
21555;BME280;10938;44.794;-0.676;2022-08-19T04:17:05;101516.81;;;27.53;37.85
21555;BME280;10938;44.794;-0.676;2022-08-19T04:19:31;101513.94;;;27.58;36.98
21555;BME280;10938;44.794;-0.676;2022-08-19T04:21:57;101510.53;;;28.68;35.20
21555;BME280;10938;44.794;-0.676;2022-08-19T04:24:23;101515.69;;;26.97;38.20
21555;BME280;10938;44.794;-0.676;2022-08-19T04:26:49;101517.66;;;27.34;37.74
21555;BME280;10938;44.794;-0.676;2022-08-19T04:29:30;101520.84;;;26.80;39.32
21555;BME280;10938;44.794;-0.676;2022-08-19T04:32:29;101517.66;;;25.55;41.12
21555;BME280;10938;44.794;-0.676;2022-08-19T04:34:56;101516.75;;;26.03;40.56
21555;BME280;10938;44.794;-0.676;2022-08-19T04:37:26;101525.91;;;25.97;41.00
21555;BME280;10938;44.794;-0.676;2022-08-19T04:39:59;101524.88;;;26.25;39.71
21555;BME280;10938;44.794;-0.676;2022-08-19T04:42:49;101526.88;;;26.41;39.97
21555;BME280;10938;44.794;-0.676;2022-08-19T04:45:16;101520.69;;;26.16;39.96
21555;BME280;10938;44.794;-0.676;2022-08-19T04:47:43;101527.75;;;26.42;39.08
21555;BME280;10938;44.794;-0.676;2022-08-19T04:50:29;101530.38;;;26.65;38.68
21555;BME280;10938;44.794;-0.676;2022-08-19T04:52:55;101530.78;;;26.33;39.22
21555;BME280;10938;44.794;-0.676;2022-08-19T04:55:24;101527.22;;;28.37;35.82
21555;BME280;10938;44.794;-0.676;2022-08-19T04:57:55;101537.03;;;29.79;32.87
21555;BME280;10938;44.794;-0.676;2022-08-19T05:00:23;101536.53;;;30.05;32.50
21555;BME280;10938;44.794;-0.676;2022-08-19T05:02:49;101536.00;;;30.14;32.34
21555;BME280;10938;44.794;-0.676;2022-08-19T05:05:15;101543.44;;;26.73;37.49
21555;BME280;10938;44.794;-0.676;2022-08-19T05:07:40;101536.47;;;26.47;39.34
21555;BME280;10938;44.794;-0.676;2022-08-19T05:10:07;101539.09;;;26.02;40.57
21555;BME280;10938;44.794;-0.676;2022-08-19T05:12:33;101537.47;;;25.98;39.98
21555;BME280;10938;44.794;-0.676;2022-08-19T05:14:59;101539.00;;;25.55;41.49
21555;BME280;10938;44.794;-0.676;2022-08-19T05:17:26;101542.75;;;24.99;43.31
21555;BME280;10938;44.794;-0.676;2022-08-19T05:19:52;101550.19;;;25.42;42.11
21555;BME280;10938;44.794;-0.676;2022-08-19T05:22:36;101547.78;;;25.59;41.42
21555;BME280;10938;44.794;-0.676;2022-08-19T05:25:13;101548.16;;;25.98;41.33
21555;BME280;10938;44.794;-0.676;2022-08-19T05:27:40;101548.22;;;26.20;40.30
21555;BME280;10938;44.794;-0.676;2022-08-19T05:30:07;101551.03;;;26.61;39.95
21555;BME280;10938;44.794;-0.676;2022-08-19T05:32:34;101559.22;;;26.79;39.06
21555;BME280;10938;44.794;-0.676;2022-08-19T05:34:59;101557.72;;;26.50;39.92
21555;BME280;10938;44.794;-0.676;2022-08-19T05:37:25;101554.50;;;26.63;40.11
21555;BME280;10938;44.794;-0.676;2022-08-19T05:39:53;101553.13;;;26.98;39.00
21555;BME280;10938;44.794;-0.676;2022-08-19T05:42:22;101558.75;;;27.12;38.42
21555;BME280;10938;44.794;-0.676;2022-08-19T05:44:49;101560.59;;;27.52;37.85
21555;BME280;10938;44.794;-0.676;2022-08-19T05:47:16;101565.56;;;27.82;37.61
21555;BME280;10938;44.794;-0.676;2022-08-19T05:49:49;101572.75;;;28.20;37.63
21555;BME280;10938;44.794;-0.676;2022-08-19T05:52:20;101574.34;;;28.43;37.10
21555;BME280;10938;44.794;-0.676;2022-08-19T05:54:56;101563.13;;;27.96;37.57
21555;BME280;10938;44.794;-0.676;2022-08-19T05:57:23;101569.19;;;28.20;36.94
21555;BME280;10938;44.794;-0.676;2022-08-19T05:59:52;101568.22;;;28.02;38.01
21555;BME280;10938;44.794;-0.676;2022-08-19T06:02:43;101567.38;;;28.76;35.90
21555;BME280;10938;44.794;-0.676;2022-08-19T06:05:17;101559.78;;;29.03;36.22
21555;BME280;10938;44.794;-0.676;2022-08-19T06:07:44;101566.53;;;29.46;35.67
21555;BME280;10938;44.794;-0.676;2022-08-19T06:10:18;101572.22;;;29.91;35.68
21555;BME280;10938;44.794;-0.676;2022-08-19T06:12:46;101577.09;;;32.70;32.79
21555;BME280;10938;44.794;-0.676;2022-08-19T06:15:13;101586.59;;;36.64;27.84
21555;BME280;10938;44.794;-0.676;2022-08-19T06:17:51;101588.06;;;41.71;21.46
21555;BME280;10938;44.794;-0.676;2022-08-19T06:20:16;101602.97;;;44.47;19.40
21555;BME280;10938;44.794;-0.676;2022-08-19T06:22:46;101605.69;;;46.44;17.09
21555;BME280;10938;44.794;-0.676;2022-08-19T06:25:18;101609.59;;;48.32;15.39
21555;BME280;10938;44.794;-0.676;2022-08-19T06:27:45;101614.19;;;50.63;12.44
21555;BME280;10938;44.794;-0.676;2022-08-19T06:30:13;101615.56;;;51.97;11.56
21555;BME280;10938;44.794;-0.676;2022-08-19T06:32:40;101621.63;;;53.38;10.81
21555;BME280;10938;44.794;-0.676;2022-08-19T06:35:06;101611.38;;;50.12;12.16
21555;BME280;10938;44.794;-0.676;2022-08-19T06:37:32;101586.53;;;45.46;15.05
21555;BME280;10938;44.794;-0.676;2022-08-19T06:39:57;101587.03;;;41.89;18.83
21555;BME280;10938;44.794;-0.676;2022-08-19T06:42:23;101585.94;;;45.36;16.41
21555;BME280;10938;44.794;-0.676;2022-08-19T06:44:53;101597.16;;;49.56;12.76
21555;BME280;10938;44.794;-0.676;2022-08-19T06:47:21;101614.41;;;53.08;10.60
21555;BME280;10938;44.794;-0.676;2022-08-19T06:49:48;101622.16;;;53.82;10.19
21555;BME280;10938;44.794;-0.676;2022-08-19T06:52:14;101629.78;;;55.01;9.64
21555;BME280;10938;44.794;-0.676;2022-08-19T06:54:42;101627.91;;;54.90;9.01
21555;BME280;10938;44.794;-0.676;2022-08-19T06:57:08;101623.09;;;54.74;9.13
21555;BME280;10938;44.794;-0.676;2022-08-19T06:59:47;101632.84;;;55.16;8.74
21555;BME280;10938;44.794;-0.676;2022-08-19T07:02:18;101644.44;;;58.48;6.99
21555;BME280;10938;44.794;-0.676;2022-08-19T07:05:00;101652.81;;;59.50;6.22
21555;BME280;10938;44.794;-0.676;2022-08-19T07:07:31;101662.09;;;61.04;5.40
21555;BME280;10938;44.794;-0.676;2022-08-19T07:10:05;101655.06;;;59.28;6.40
21555;BME280;10938;44.794;-0.676;2022-08-19T07:12:31;101661.44;;;60.79;5.62
21555;BME280;10938;44.794;-0.676;2022-08-19T07:15:04;101654.19;;;57.46;7.53
21555;BME280;10938;44.794;-0.676;2022-08-19T07:17:33;101638.91;;;55.75;8.55
21555;BME280;10938;44.794;-0.676;2022-08-19T07:20:03;101635.28;;;54.68;8.80
21555;BME280;10938;44.794;-0.676;2022-08-19T07:22:29;101646.94;;;58.39;6.84
21555;BME280;10938;44.794;-0.676;2022-08-19T07:24:56;101654.78;;;59.55;7.00
21555;BME280;10938;44.794;-0.676;2022-08-19T07:27:21;101651.09;;;59.09;6.46
21555;BME280;10938;44.794;-0.676;2022-08-19T07:30:02;101656.44;;;59.76;6.27
21555;BME280;10938;44.794;-0.676;2022-08-19T07:32:31;101664.81;;;61.19;5.05
21555;BME280;10938;44.794;-0.676;2022-08-19T07:34:57;101667.06;;;63.45;4.92
21555;BME280;10938;44.794;-0.676;2022-08-19T07:37:23;101663.28;;;62.61;4.45
21555;BME280;10938;44.794;-0.676;2022-08-19T07:39:51;101669.06;;;64.81;4.43
21555;BME280;10938;44.794;-0.676;2022-08-19T07:42:17;101672.50;;;67.31;3.56
21555;BME280;10938;44.794;-0.676;2022-08-19T07:44:43;101654.56;;;65.27;3.20
21555;BME280;10938;44.794;-0.676;2022-08-19T07:47:09;101628.84;;;60.57;5.86
21555;BME280;10938;44.794;-0.676;2022-08-19T07:49:35;101606.19;;;58.42;6.58
21555;BME280;10938;44.794;-0.676;2022-08-19T07:52:05;101604.47;;;58.36;6.87
21555;BME280;10938;44.794;-0.676;2022-08-19T07:54:36;101602.66;;;56.72;7.41
21555;BME280;10938;44.794;-0.676;2022-08-19T07:57:12;101602.84;;;55.62;8.20
21555;BME280;10938;44.794;-0.676;2022-08-19T07:59:52;101614.50;;;57.69;7.32
21555;BME280;10938;44.794;-0.676;2022-08-19T08:02:18;101616.47;;;59.54;6.74
21555;BME280;10938;44.794;-0.676;2022-08-19T08:04:44;101613.59;;;56.95;7.97
21555;BME280;10938;44.794;-0.676;2022-08-19T08:07:28;101595.53;;;54.94;8.64
21555;BME280;10938;44.794;-0.676;2022-08-19T08:10:12;101600.28;;;56.85;8.24
21555;BME280;10938;44.794;-0.676;2022-08-19T08:12:40;101612.19;;;58.65;6.95
21555;BME280;10938;44.794;-0.676;2022-08-19T08:15:11;101618.41;;;58.05;7.57
21555;BME280;10938;44.794;-0.676;2022-08-19T08:17:37;101605.28;;;53.54;9.63
21555;BME280;10938;44.794;-0.676;2022-08-19T08:20:05;101595.63;;;49.99;11.91
21555;BME280;10938;44.794;-0.676;2022-08-19T08:22:45;101589.84;;;51.03;11.57
21555;BME280;10938;44.794;-0.676;2022-08-19T08:25:30;101587.41;;;48.67;12.59
21555;BME280;10938;44.794;-0.676;2022-08-19T08:28:12;101604.78;;;49.08;12.81
21555;BME280;10938;44.794;-0.676;2022-08-19T08:30:40;101609.88;;;54.98;9.21
21555;BME280;10938;44.794;-0.676;2022-08-19T08:33:07;101620.44;;;59.27;6.43
21555;BME280;10938;44.794;-0.676;2022-08-19T08:35:33;101623.72;;;59.95;6.49
21555;BME280;10938;44.794;-0.676;2022-08-19T08:38:01;101626.03;;;59.73;6.50
21555;BME280;10938;44.794;-0.676;2022-08-19T08:40:46;101631.41;;;61.32;5.48
21555;BME280;10938;44.794;-0.676;2022-08-19T08:44:20;101620.25;;;58.47;7.14
21555;BME280;10938;44.794;-0.676;2022-08-19T08:47:21;101613.16;;;56.55;7.41
21555;BME280;10938;44.794;-0.676;2022-08-19T08:50:23;101619.47;;;56.72;7.19
21555;BME280;10938;44.794;-0.676;2022-08-19T08:52:51;101611.06;;;58.76;7.08
21555;BME280;10938;44.794;-0.676;2022-08-19T08:55:27;101636.72;;;61.91;5.53
21555;BME280;10938;44.794;-0.676;2022-08-19T08:58:06;101642.94;;;64.56;3.57
21555;BME280;10938;44.794;-0.676;2022-08-19T09:00:39;101646.88;;;65.27;3.73
21555;BME280;10938;44.794;-0.676;2022-08-19T09:03:26;101635.75;;;62.48;4.38
21555;BME280;10938;44.794;-0.676;2022-08-19T09:10:54;101578.72;;;48.89;12.47
21555;BME280;10938;44.794;-0.676;2022-08-19T09:15:54;101579.75;;;46.60;14.60
21555;BME280;10938;44.794;-0.676;2022-08-19T09:18:20;101581.38;;;47.11;14.59
21555;BME280;10938;44.794;-0.676;2022-08-19T09:20:46;101585.13;;;46.17;15.02
21555;BME280;10938;44.794;-0.676;2022-08-19T09:23:15;101587.53;;;47.07;14.85
21555;BME280;10938;44.794;-0.676;2022-08-19T09:25:49;101580.63;;;47.66;14.58
21555;BME280;10938;44.794;-0.676;2022-08-19T09:28:15;101581.59;;;47.80;13.74
21555;BME280;10938;44.794;-0.676;2022-08-19T09:30:41;101581.03;;;45.61;15.63
21555;BME280;10938;44.794;-0.676;2022-08-19T09:33:07;101583.59;;;46.80;15.31
21555;BME280;10938;44.794;-0.676;2022-08-19T09:35:35;101589.00;;;47.51;14.42
21555;BME280;10938;44.794;-0.676;2022-08-19T09:38:00;101580.91;;;47.50;14.21
21555;BME280;10938;44.794;-0.676;2022-08-19T09:40:33;101581.88;;;46.28;14.76
21555;BME280;10938;44.794;-0.676;2022-08-19T09:43:00;101579.41;;;46.33;15.39
21555;BME280;10938;44.794;-0.676;2022-08-19T09:45:49;101579.13;;;45.01;16.45
21555;BME280;10938;44.794;-0.676;2022-08-19T09:48:15;101583.44;;;44.34;16.87
21555;BME280;10938;44.794;-0.676;2022-08-19T09:51:11;101589.28;;;44.39;17.54
21555;BME280;10938;44.794;-0.676;2022-08-19T09:54:25;101579.31;;;43.27;18.00
21555;BME280;10938;44.794;-0.676;2022-08-19T09:57:10;101582.41;;;43.80;18.43
21555;BME280;10938;44.794;-0.676;2022-08-19T09:59:36;101592.19;;;44.77;16.97
21555;BME280;10938;44.794;-0.676;2022-08-19T10:02:02;101596.13;;;44.43;16.63
21555;BME280;10938;44.794;-0.676;2022-08-19T10:04:27;101594.81;;;42.70;18.55
21555;BME280;10938;44.794;-0.676;2022-08-19T10:07:13;101577.53;;;41.58;20.26
21555;BME280;10938;44.794;-0.676;2022-08-19T10:09:38;101584.66;;;41.94;20.01
21555;BME280;10938;44.794;-0.676;2022-08-19T10:12:07;101578.75;;;43.88;17.85
21555;BME280;10938;44.794;-0.676;2022-08-19T10:14:49;101586.09;;;44.58;17.08
21555;BME280;10938;44.794;-0.676;2022-08-19T10:17:52;101579.06;;;42.88;19.00
21555;BME280;10938;44.794;-0.676;2022-08-19T10:20:25;101575.06;;;41.11;20.77
21555;BME280;10938;44.794;-0.676;2022-08-19T10:23:19;101576.63;;;41.14;20.28
21555;BME280;10938;44.794;-0.676;2022-08-19T10:26:04;101582.38;;;42.16;19.63
21555;BME280;10938;44.794;-0.676;2022-08-19T10:28:32;101584.34;;;42.23;19.79
21555;BME280;10938;44.794;-0.676;2022-08-19T10:30:58;101574.31;;;42.14;19.49
21555;BME280;10938;44.794;-0.676;2022-08-19T10:33:50;101577.00;;;42.98;18.85
21555;BME280;10938;44.794;-0.676;2022-08-19T10:36:34;101569.63;;;42.40;19.39
21555;BME280;10938;44.794;-0.676;2022-08-19T10:39:08;101566.38;;;42.03;19.12
21555;BME280;10938;44.794;-0.676;2022-08-19T10:42:14;101567.13;;;42.55;19.07
21555;BME280;10938;44.794;-0.676;2022-08-19T10:44:46;101573.28;;;43.07;17.76
21555;BME280;10938;44.794;-0.676;2022-08-19T10:47:18;101560.75;;;41.35;20.65
21555;BME280;10938;44.794;-0.676;2022-08-19T10:49:48;101564.03;;;41.82;19.36
21555;BME280;10938;44.794;-0.676;2022-08-19T10:52:44;101568.34;;;43.43;18.23
21555;BME280;10938;44.794;-0.676;2022-08-19T10:55:15;101569.97;;;42.37;19.42
21555;BME280;10938;44.794;-0.676;2022-08-19T10:57:59;101564.03;;;42.58;19.18
21555;BME280;10938;44.794;-0.676;2022-08-19T11:00:25;101562.28;;;42.41;18.71
21555;BME280;10938;44.794;-0.676;2022-08-19T11:02:52;101565.97;;;40.48;20.68
21555;BME280;10938;44.794;-0.676;2022-08-19T11:05:18;101558.78;;;40.20;21.61
21555;BME280;10938;44.794;-0.676;2022-08-19T11:07:45;101562.53;;;39.63;22.34
21555;BME280;10938;44.794;-0.676;2022-08-19T11:10:13;101564.59;;;39.13;23.14
21555;BME280;10938;44.794;-0.676;2022-08-19T11:12:50;101558.66;;;38.70;23.64
21555;BME280;10938;44.794;-0.676;2022-08-19T11:19:03;101570.88;;;39.04;22.92
21555;BME280;10938;44.794;-0.676;2022-08-19T11:21:48;101577.50;;;40.15;22.41
21555;BME280;10938;44.794;-0.676;2022-08-19T11:24:29;101572.09;;;39.96;22.06
21555;BME280;10938;44.794;-0.676;2022-08-19T11:27:01;101570.59;;;41.28;20.84
21555;BME280;10938;44.794;-0.676;2022-08-19T11:29:27;101565.72;;;40.42;21.37
21555;BME280;10938;44.794;-0.676;2022-08-19T11:31:54;101574.97;;;42.08;19.95
21555;BME280;10938;44.794;-0.676;2022-08-19T11:34:24;101574.91;;;42.26;19.62
21555;BME280;10938;44.794;-0.676;2022-08-19T11:37:01;101574.16;;;42.49;19.59
21555;BME280;10938;44.794;-0.676;2022-08-19T11:39:48;101578.09;;;43.21;18.77
21555;BME280;10938;44.794;-0.676;2022-08-19T11:42:18;101577.31;;;44.16;17.60
21555;BME280;10938;44.794;-0.676;2022-08-19T11:45:03;101576.69;;;42.93;18.81
21555;BME280;10938;44.794;-0.676;2022-08-19T11:47:36;101584.03;;;44.05;17.99
21555;BME280;10938;44.794;-0.676;2022-08-19T11:50:04;101569.16;;;43.27;18.77
21555;BME280;10938;44.794;-0.676;2022-08-19T11:52:32;101560.50;;;42.66;18.77
21555;BME280;10938;44.794;-0.676;2022-08-19T11:54:58;101572.91;;;43.91;18.03
21555;BME280;10938;44.794;-0.676;2022-08-19T11:57:24;101572.28;;;43.48;18.62
21555;BME280;10938;44.794;-0.676;2022-08-19T11:59:51;101565.75;;;43.09;18.95
21555;BME280;10938;44.794;-0.676;2022-08-19T12:02:35;101568.66;;;43.16;19.29
21555;BME280;10938;44.794;-0.676;2022-08-19T12:05:07;101572.09;;;41.40;20.77
21555;BME280;10938;44.794;-0.676;2022-08-19T12:07:33;101572.44;;;43.06;18.95
21555;BME280;10938;44.794;-0.676;2022-08-19T12:10:00;101566.09;;;43.30;19.08
21555;BME280;10938;44.794;-0.676;2022-08-19T12:12:32;101571.88;;;42.95;19.20
21555;BME280;10938;44.794;-0.676;2022-08-19T12:15:02;101567.47;;;43.10;18.68
21555;BME280;10938;44.794;-0.676;2022-08-19T12:17:30;101567.03;;;42.73;19.26
21555;BME280;10938;44.794;-0.676;2022-08-19T12:20:00;101563.53;;;42.54;19.43
21555;BME280;10938;44.794;-0.676;2022-08-19T12:22:27;101563.31;;;42.48;19.80
21555;BME280;10938;44.794;-0.676;2022-08-19T12:24:54;101569.34;;;42.43;20.11
21555;BME280;10938;44.794;-0.676;2022-08-19T12:27:20;101567.09;;;42.97;19.47
21555;BME280;10938;44.794;-0.676;2022-08-19T12:29:46;101570.19;;;43.18;19.21
21555;BME280;10938;44.794;-0.676;2022-08-19T12:32:11;101566.38;;;42.03;20.34
21555;BME280;10938;44.794;-0.676;2022-08-19T12:34:37;101561.97;;;41.84;20.56
21555;BME280;10938;44.794;-0.676;2022-08-19T12:37:04;101559.50;;;41.73;21.26
21555;BME280;10938;44.794;-0.676;2022-08-19T12:39:42;101560.53;;;41.72;21.42
21555;BME280;10938;44.794;-0.676;2022-08-19T12:42:10;101567.34;;;41.42;21.61
21555;BME280;10938;44.794;-0.676;2022-08-19T12:44:39;101560.84;;;41.26;21.77
21555;BME280;10938;44.794;-0.676;2022-08-19T12:47:06;101567.69;;;40.77;22.32
21555;BME280;10938;44.794;-0.676;2022-08-19T12:49:32;101561.91;;;41.33;21.54
21555;BME280;10938;44.794;-0.676;2022-08-19T12:52:05;101561.88;;;41.94;20.86
21555;BME280;10938;44.794;-0.676;2022-08-19T12:54:33;101560.75;;;41.18;22.00
21555;BME280;10938;44.794;-0.676;2022-08-19T12:56:59;101550.03;;;39.60;23.67
21555;BME280;10938;44.794;-0.676;2022-08-19T12:59:32;101554.69;;;39.97;23.13
21555;BME280;10938;44.794;-0.676;2022-08-19T13:01:59;101542.88;;;40.60;22.36
21555;BME280;10938;44.794;-0.676;2022-08-19T13:04:26;101543.66;;;40.98;22.03
21555;BME280;10938;44.794;-0.676;2022-08-19T13:06:55;101543.91;;;40.77;22.06
21555;BME280;10938;44.794;-0.676;2022-08-19T13:09:21;101536.97;;;40.83;22.36
21555;BME280;10938;44.794;-0.676;2022-08-19T13:12:12;101540.88;;;40.63;23.07
21555;BME280;10938;44.794;-0.676;2022-08-19T13:14:46;101536.78;;;40.22;23.34
21555;BME280;10938;44.794;-0.676;2022-08-19T13:17:21;101537.88;;;39.92;23.43